ADDS METAR Data INFO
IDs: Format: Raw Decoded Include TAF

Data at: 2252 UTC 22 Jun 2018

KODX 222153Z AUTO 10008KT 10SM SCT039 24/14 A2985 RMK AO2 SLP103 T02390139
KODX 222053Z AUTO 12007KT 10SM BKN042 22/14 A2987 RMK AO2 SLP109 T02220139 58016
KODX 221953Z AUTO 10006KT 10SM BKN041 23/14 A2989 RMK AO2 SLP116 T02280144
KODX 221853Z AUTO 10007KT 10SM SCT037 23/14 A2990 RMK AO2 SLP119 T02330139
KODX 221753Z AUTO 10010KT 10SM BKN036 23/14 A2992 RMK AO2 SLP124 T02280144 10228 20122 56013
KODX 221653Z AUTO 09005KT 10SM FEW033 21/14 A2993 RMK AO2 SLP131 T02110139
KODX 221553Z AUTO 07006KT 10SM CLR 21/14 A2994 RMK AO2 SLP134 T02060139
KODX 221453Z AUTO 05005KT 10SM CLR 19/13 A2996 RMK AO2 SLP139 T01940133 55000
KODX 221353Z AUTO 04005KT 10SM CLR 18/15 A2995 RMK AO2 SLP138 T01830150
KODX 221253Z AUTO 35004KT 10SM CLR 14/14 A2995 RMK AO2 SLP138 T01440139
KODX 221153Z AUTO 00000KT 8SM CLR 12/12 A2996 RMK AO2 SLP142 T01170117 10150 20106 51009
KODX 221053Z AUTO 30003KT 10SM CLR 11/11 A2996 RMK AO2 SLP142 T01110111
KODX 220953Z AUTO 32005KT 10SM CLR 11/11 A2993 RMK AO2 SLP131 T01110111
KODX 220853Z AUTO 03003KT 10SM CLR 13/12 A2993 RMK AO2 SLP130 T01280122 58021
KODX 220753Z AUTO 31006KT 10SM CLR 13/13 A2996 RMK AO2 SLP141 T01330128
KODX 220653Z AUTO 35005KT 10SM CLR 14/13 A2997 RMK AO2 SLP145 T01390133
KODX 220553Z AUTO 31005KT 10SM CLR 14/14 A3000 RMK AO2 SLP152 T01440139 10200 20139 402390139 53013
KODX 220453Z AUTO 35003KT 10SM CLR 14/14 A2997 RMK AO2 SLP145 T01440139
KODX 220353Z AUTO 31005KT 10SM CLR 14/14 A2998 RMK AO2 SLP147 T01440139
KODX 220253Z AUTO 04004KT 10SM CLR 17/15 A2996 RMK AO2 SLP139 T01670150 51004
KODX 220153Z AUTO 02004KT 10SM FEW044 18/15 A2995 RMK AO2 SLP138 T01830150
KODX 220053Z AUTO 04006KT 10SM CLR 19/14 A2995 RMK AO2 SLP137 T01940144
KODX 212353Z AUTO 02011KT 10SM FEW075 SCT120 20/15 A2994 RMK AO2 SLP136 T02000150 10239 20200 53009
KODX 212253Z AUTO 03011KT 10SM BKN050 21/16 A2994 RMK AO2 SLP133 T02060156
KODX 212153Z AUTO 03016G24KT 10SM SCT046 BKN055 23/16 A2992 RMK AO2 PK WND 34029/2058 SLP125 T02280161
KODX 212053Z AUTO 36015G25KT 10SM BKN050 BKN060 24/15 A2992 RMK AO2 PK WND 01033/2040 SLP123 T02390150 55005
KODX 211953Z AUTO 36014G27KT 10SM BKN055 23/14 A2991 RMK AO2 PK WND 35032/1922 SLP122 T02330144
KODX 211853Z AUTO 35019G32KT 10SM SCT046 SCT070 BKN080 23/14 A2992 RMK AO2 PK WND 36032/1850 SLP125 T02280139
KODX 211753Z AUTO 35016G26KT 10SM FEW041 BKN048 OVC060 22/14 A2993 RMK AO2 PK WND 34029/1743 SLP129 60000 T02170144 10217 20156 58001
KODX 211653Z AUTO 34015G27KT 10SM FEW039 OVC049 19/14 A2993 RMK AO2 PK WND 35029/1600 RAB13E24 SLP131 P0000 T01940139
KODX 211553Z AUTO 34013G25KT 10SM FEW035 BKN055 19/14 A2993 RMK AO2 PK WND 33027/1511 SLP131 T01940144
KODX 211453Z AUTO 34018G28KT 10SM SCT100 18/14 A2993 RMK AO2 PK WND 33028/1449 SLP131 60000 T01830139 51003
KODX 211353Z AUTO 34013G21KT 10SM SCT090 OVC110 17/14 A2993 RMK AO2 RAB1256E24 SLP130 P0000 T01720139
KODX 211253Z AUTO 33013KT 10SM FEW060 BKN095 BKN110 17/14 A2993 RMK AO2 SLP130 T01670144
KODX 211153Z AUTO 32011G20KT 10SM OVC080 16/14 A2992 RMK AO2 SLP128 70007 T01560139 10167 20156 53002 $
KODX 211053Z AUTO 32012KT 10SM FEW041 BKN070 OVC090 16/14 A2991 RMK AO2 SLP125 T01610144 $